Date,TemperatureHighF,TemperatureAvgF,TemperatureLowF,DewpointHighF,DewpointAvgF,DewpointLowF,HumidityHigh,HumidityAvg,HumidityLow,PressureMaxIn,PressureMinIn,WindSpeedMaxMPH,WindSpeedAvgMPH,GustSpeedMaxMPH,PrecipitationSumIn
2013-1-1,45.8,41.0,36.9,41.8,37.0,31.6,87,86,78,30.16,29.99,10,1,16,0.01
2013-1-2,39.6,36.0,34.4,35.7,32.4,30.9,89,87,83,30.22,30.05,8,1,11,0.01
2013-1-3,43.7,34.3,26.2,31.8,27.9,22.5,88,78,49,30.42,30.20,8,0,9,0.00
2013-1-4,40.5,29.9,22.1,27.7,23.3,19.0,88,77,55,30.49,30.40,9,0,11,0.00
2013-1-5,45.6,33.7,22.1,34.2,26.0,19.0,88,75,47,30.49,30.29,10,0,11,0.01
2013-1-6,45.6,39.4,35.8,37.8,34.4,27.7,88,82,70,30.34,30.15,16,3,16,0.01
2013-1-7,51.0,35.7,25.5,33.6,27.7,22.1,88,74,47,30.48,30.34,7,1,10,0.00
2013-1-8,55.5,38.6,26.3,37.3,30.5,23.2,88,74,49,30.48,30.35,4,0,7,0.00
2013-1-9,48.9,44.6,35.4,45.6,39.8,30.7,91,83,66,30.51,30.37,9,0,11,0.06
2013-1-10,62.8,54.1,46.9,54.2,48.4,42.9,88,82,71,30.51,30.19,8,1,14,0.00
2013-1-11,65.9,60.9,55.5,60.7,55.8,50.3,88,84,74,30.18,30.03,15,4,23,0.03
2013-1-12,70.1,64.6,60.8,63.9,59.8,55.5,88,85,74,30.13,29.98,12,3,18,0.02
2013-1-13,67.2,61.4,52.3,59.8,56.1,48.5,88,83,72,30.03,29.93,10,1,15,0.01
2013-1-14,59.6,43.2,36.3,55.4,39.7,33.0,89,88,86,30.35,30.00,11,1,14,0.01
2013-1-15,43.1,41.0,38.6,39.4,37.5,35.3,88,87,87,30.25,30.01,7,1,9,0.02
2013-1-16,47.3,43.0,40.0,43.6,39.6,36.7,93,88,87,30.10,29.95,10,1,12,0.01
2013-1-17,41.4,36.1,28.9,38.1,32.9,26.0,95,88,82,30.39,29.97,10,1,12,0.01
2013-1-18,43.4,31.3,22.0,38.8,27.2,19.2,89,85,68,30.60,30.39,6,0,7,0.01
2013-1-19,46.9,34.4,23.4,36.3,28.6,20.3,89,80,63,30.48,30.22,10,1,14,0.01
2013-1-20,54.3,41.4,31.4,38.1,30.6,24.5,87,67,42,30.24,30.15,8,1,13,0.00
2013-1-21,32.4,28.6,25.8,25.8,23.1,21.3,84,80,75,30.18,30.12,0,0,1,0.00
2013-1-22,30.9,25.7,18.8,7.5,2.7,-2.0,60,37,25,30.41,30.32,10,2,15,0.00
2013-1-23,41.9,31.6,21.2,26.9,15.1,2.2,70,51,36,30.43,30.17,11,1,12,0.00
2013-1-24,40.2,30.5,21.9,31.3,14.8,4.6,73,53,32,30.47,30.16,12,2,17,0.00
2013-1-25,33.4,29.0,22.5,29.9,22.6,7.1,88,78,49,30.42,30.14,9,1,12,0.00
2013-1-26,39.1,32.6,26.6,33.5,28.9,23.5,89,86,77,30.44,30.24,7,1,9,0.42
2013-1-27,45.2,34.8,23.7,37.3,29.6,20.9,89,82,62,30.50,30.38,7,0,9,0.04
2013-1-28,52.8,46.5,36.8,49.1,42.1,33.5,89,85,75,30.40,30.24,10,1,13,0.01
2013-1-29,67.0,56.6,45.4,56.8,50.0,41.7,89,79,69,30.26,29.87,11,1,23,0.00
2013-1-30,68.5,56.9,41.3,59.6,51.2,36.8,89,82,70,29.86,29.47,23,4,26,0.02
2013-1-31,41.2,35.6,32.3,36.7,25.5,22.3,86,67,51,30.05,29.64,18,4,24,0.01
2013-2-1,38.6,24.1,15.7,31.2,14.9,6.9,88,68,51,30.46,30.00,18,3,25,0.00
2013-2-2,33.6,27.2,19.7,30.4,22.5,13.9,89,83,65,30.44,30.14,13,3,18,0.00
2013-2-3,39.0,33.8,28.5,33.6,28.7,21.6,95,82,67,30.21,30.03,11,3,16,0.08
2013-2-4,45.3,34.3,22.6,30.4,25.5,19.4,95,72,52,30.19,30.00,8,0,11,0.00
2013-2-5,54.2,44.9,38.1,41.2,35.8,29.5,88,71,60,30.05,29.96,12,2,18,0.01
2013-2-6,56.6,44.9,32.3,38.5,31.9,27.5,88,63,34,30.23,30.05,9,1,14,0.00
2013-2-7,56.3,47.3,38.0,42.6,35.7,29.5,83,65,45,30.19,29.95,9,1,15,0.00
2013-2-8,50.7,43.0,35.5,45.2,37.4,28.3,89,81,65,30.30,29.91,16,2,20,0.11
2013-2-9,51.0,38.4,25.3,30.9,26.1,22.0,88,64,38,30.40,30.26,8,1,15,0.00
2013-2-10,59.0,45.5,37.5,42.3,32.0,23.5,88,62,28,30.28,30.01,8,1,16,0.12
2013-2-11,55.1,49.2,40.0,51.6,43.3,31.3,89,80,60,30.15,29.99,12,3,16,0.04
2013-2-12,52.7,43.0,32.9,36.5,30.8,26.9,86,64,39,30.21,29.90,5,0,9,0.00
2013-2-13,46.8,41.4,35.8,42.0,37.0,32.6,89,85,65,30.01,29.68,11,2,17,0.24
2013-2-14,50.8,39.9,29.5,37.5,33.4,26.3,95,78,59,30.11,30.01,9,1,14,0.00
2013-2-15,52.1,38.8,30.4,40.5,33.6,27.2,90,82,62,30.14,30.06,11,1,15,0.03
2013-2-17,39.5,31.5,21.6,18.5,14.5,9.4,72,51,29,30.32,30.25,12,2,19,0.00
2013-2-18,55.9,39.0,22.8,33.7,23.6,14.9,76,56,37,30.36,30.02,17,2,21,0.00
2013-2-19,50.1,43.4,38.5,40.8,35.2,27.2,93,75,42,30.04,29.94,17,5,30,0.36
2013-2-20,38.1,33.3,25.3,18.1,15.4,12.9,72,49,36,30.29,30.22,9,1,12,0.00
2013-2-21,50.3,35.7,21.4,36.0,22.4,16.2,88,62,32,30.32,30.07,7,1,11,0.34
2013-2-22,53.5,47.8,39.3,47.1,43.2,36.0,89,84,76,30.14,30.01,9,1,17,0.08
2013-2-23,59.0,49.5,40.4,48.6,44.1,35.6,89,82,63,29.97,29.84,5,0,10,0.00
2013-2-24,53.0,40.1,29.7,35.5,28.1,23.2,88,65,32,30.12,29.92,10,1,14,0.00
2013-2-25,55.5,41.5,30.0,35.8,29.1,24.2,81,63,41,30.11,29.86,16,2,26,0.00
2013-2-26,58.0,48.5,41.1,49.1,42.1,35.6,88,79,67,29.68,29.44,22,8,33,0.16
2013-2-27,45.1,39.8,37.7,36.8,34.3,30.5,87,81,67,29.87,29.67,18,6,20,0.01
2013-2-28,37.7,35.1,32.4,32.4,28.9,25.8,88,78,66,30.03,29.83,12,1,15,0.01
2013-3-1,40.8,36.1,33.9,34.1,31.3,29.4,89,83,70,30.02,29.97,9,1,10,0.00
2013-3-2,38.4,33.0,28.5,32.2,27.7,20.2,89,81,69,30.10,29.96,11,2,14,0.02
2013-3-3,32.0,28.2,21.5,22.5,20.4,18.0,88,73,60,30.16,30.09,9,1,12,0.00
2013-3-4,49.7,34.5,19.1,28.2,21.7,15.7,88,63,36,30.26,30.06,7,0,9,0.00
2013-3-5,47.2,40.6,33.0,43.8,34.5,23.7,93,80,46,30.08,29.64,15,2,31,0.01
2013-3-6,32.8,30.9,28.8,28.9,27.1,23.6,89,86,75,30.31,29.86,12,2,18,0.01
2013-3-7,34.3,32.4,31.0,28.9,27.3,26.1,88,82,78,30.42,30.28,6,1,11,0.03
2013-3-8,49.9,36.7,25.5,30.9,27.3,22.2,89,70,43,30.48,30.35,8,1,12,0.01
2013-3-11,53.0,50.7,45.6,49.5,47.2,42.5,89,88,87,29.86,29.76,16,1,24,0.01
2013-3-12,50.5,42.5,36.5,42.3,34.3,29.6,89,74,54,30.12,29.86,11,1,16,0.01
2013-3-13,40.5,35.8,30.3,30.8,25.2,17.7,88,66,51,30.36,30.09,17,3,20,0.00
2013-3-14,45.7,34.6,23.5,25.4,20.3,16.6,80,57,36,30.45,30.29,9,1,13,0.00
2013-3-15,64.2,46.4,30.2,44.0,35.0,25.4,88,66,46,30.30,29.92,14,2,17,0.00
2013-3-16,72.9,62.9,53.1,52.9,48.2,43.8,75,59,45,29.92,29.75,21,5,26,0.00
2013-3-17,68.2,58.2,50.6,53.7,49.7,46.7,88,74,49,29.96,29.81,11,1,19,0.00
2013-3-18,56.2,52.0,48.0,51.2,47.7,44.6,88,85,75,29.90,29.78,15,1,21,0.01
2013-3-19,55.5,46.3,33.8,48.3,30.0,11.6,89,58,21,30.15,29.84,19,3,22,0.01
2013-3-20,52.7,40.8,28.0,30.4,19.9,11.4,73,45,26,30.15,29.89,16,2,23,0.00
2013-3-21,37.7,29.9,23.3,17.1,13.8,11.5,64,51,37,30.08,29.97,12,2,18,0.00
2013-3-22,43.0,33.3,21.0,31.7,19.7,14.1,80,59,35,30.14,30.06,6,0,8,0.00
2013-3-23,53.3,44.0,38.3,40.8,35.5,29.7,88,72,59,30.08,29.80,5,0,8,0.00
2013-3-24,52.6,47.0,41.1,49.1,43.0,35.4,89,86,66,29.82,29.36,14,2,24,0.01
2013-3-25,40.9,33.7,31.0,35.5,29.5,26.8,89,85,71,30.03,29.57,21,7,26,0.01
2013-3-26,36.7,33.1,31.1,32.2,29.6,27.4,94,87,78,30.32,30.03,7,1,16,0.07
2013-3-27,43.2,35.9,30.2,30.3,27.4,25.0,88,72,52,30.39,30.31,9,1,14,0.00
2013-3-28,52.9,38.3,25.4,31.8,25.2,20.9,88,63,31,30.41,30.30,13,1,17,0.00
2013-3-29,48.4,38.8,28.7,39.5,32.3,23.9,89,78,49,30.38,30.28,8,0,11,0.08
2013-3-30,57.5,47.5,39.8,46.8,41.5,36.5,89,80,63,30.29,30.03,9,0,11,0.05
2013-3-31,59.0,52.7,47.9,54.3,49.0,44.5,89,87,81,30.04,29.85,14,2,20,0.01
2013-4-1,60.6,49.0,37.5,49.8,40.4,32.8,90,74,47,30.09,29.90,11,1,20,0.01
2013-4-2,52.5,43.3,31.5,33.4,24.3,19.0,79,49,29,30.25,30.09,11,1,13,0.00
2013-4-3,54.8,43.5,29.8,28.4,23.1,18.9,73,47,26,30.33,30.23,9,1,16,0.00
2013-4-4,48.0,41.7,39.5,37.9,32.0,22.2,89,71,41,30.23,30.01,11,2,18,0.01
2013-4-5,62.7,48.2,39.5,42.9,37.6,34.4,89,70,37,30.12,30.00,8,1,12,0.01
2013-4-6,68.6,53.8,37.7,44.1,38.1,32.1,83,58,33,30.21,30.07,7,1,13,0.00
2013-4-7,70.5,60.2,47.1,49.9,42.7,36.9,70,53,40,30.15,30.03,15,4,21,0.00
2013-4-8,74.0,63.7,51.3,55.6,50.0,43.6,80,62,47,30.09,29.99,19,3,26,0.00
2013-4-9,78.0,65.2,52.8,60.6,54.2,48.7,87,69,48,30.17,30.01,16,2,22,0.00
2013-4-10,81.2,69.7,57.6,61.9,56.9,52.4,83,65,44,30.09,29.85,16,2,19,0.00
2013-4-11,79.1,70.1,58.6,61.1,56.8,54.1,88,64,43,29.88,29.59,19,3,27,0.01
2013-4-12,62.3,56.7,46.1,57.9,47.3,37.9,89,73,44,29.94,29.54,15,2,23,0.01
2013-4-13,68.6,53.4,39.5,44.1,39.4,35.8,89,63,31,30.10,29.94,12,1,15,0.00
2013-4-14,72.0,57.5,42.6,51.2,42.5,36.3,87,60,32,30.07,29.93,12,1,15,0.04
2013-4-15,76.0,63.9,55.9,59.4,53.9,49.2,84,71,51,30.08,29.92,7,1,17,0.00
2013-4-16,78.6,66.9,52.8,64.8,58.3,49.3,89,75,58,30.22,30.08,10,1,15,0.00
2013-4-17,67.5,63.5,59.2,62.5,59.5,55.6,89,87,79,30.26,30.06,11,1,22,0.23
2013-4-18,79.9,68.2,57.0,65.1,56.9,53.4,89,70,41,30.05,29.79,20,2,27,0.01
2013-4-19,72.1,58.1,44.8,61.0,49.9,32.9,89,75,61,30.05,29.63,12,3,25,0.01
2013-4-20,59.0,46.1,31.8,36.9,32.2,27.0,89,61,31,30.33,30.05,15,1,18,0.01
2013-4-21,63.8,50.8,37.0,41.5,35.4,31.2,81,58,34,30.42,30.28,13,1,19,0.00
2013-4-22,67.8,56.3,47.2,45.2,40.6,37.1,70,57,37,30.35,30.15,15,1,16,0.00
2013-4-23,69.8,57.4,44.5,52.1,42.7,35.3,76,59,45,30.23,30.02,10,1,10,0.00
2013-4-24,69.2,59.9,47.7,59.8,54.2,44.3,93,82,62,30.14,29.96,16,6,23,0.23
2013-4-25,62.7,54.7,44.3,43.4,37.1,32.4,74,53,33,30.38,30.30,8,1,12,0.01
2013-4-26,65.4,52.6,37.1,47.2,38.7,33.0,86,62,34,30.44,30.31,5,0,10,0.00
2013-4-27,55.5,53.7,50.8,52.3,49.5,45.2,89,86,75,30.36,30.12,8,0,11,0.29
2013-4-28,57.7,54.2,52.6,54.4,50.8,49.1,89,88,88,30.14,29.99,14,2,24,0.01
2013-4-29,67.5,61.0,54.1,59.3,55.3,50.8,90,82,69,30.04,29.95,9,1,13,0.01
2013-4-30,78.7,63.3,48.3,60.7,53.5,45.2,89,73,43,30.07,29.97,5,0,8,0.00
2013-5-1,74.5,66.4,58.1,60.2,55.3,51.2,86,68,53,30.19,30.07,14,2,18,0.00
2013-5-2,73.8,67.6,59.6,61.4,55.3,52.3,77,65,51,30.19,30.09,11,3,19,0.00
2013-5-3,71.3,62.9,57.2,57.5,51.5,47.0,80,67,45,30.12,29.97,17,4,24,0.00
2013-5-4,62.1,57.5,53.5,51.9,47.3,38.3,89,70,56,29.98,29.88,22,4,26,0.41
2013-5-5,58.8,54.9,51.7,55.5,51.6,48.5,89,89,86,29.85,29.79,11,3,14,0.01
2013-5-6,63.4,53.4,48.6,55.0,48.7,45.5,90,84,66,29.91,29.79,11,1,14,0.01
2013-5-7,65.8,54.8,44.6,55.8,49.1,41.5,90,82,64,29.97,29.89,6,0,10,0.11
2013-5-8,71.3,60.3,54.6,60.8,55.0,51.4,90,83,64,30.06,29.93,6,0,13,0.03
2013-5-9,76.2,63.4,49.4,63.1,55.6,46.2,89,78,49,30.11,30.01,9,0,15,0.00
2013-5-10,72.4,64.6,56.2,62.7,57.6,52.7,89,79,64,30.06,29.91,12,1,18,0.00
2013-5-11,71.8,62.6,53.0,64.7,56.0,48.8,89,79,64,29.97,29.83,12,1,15,0.01
2013-5-12,61.5,53.3,42.0,49.8,40.5,30.9,89,65,34,30.14,29.96,11,1,17,0.00
2013-5-13,63.5,49.9,35.5,40.7,35.1,31.8,89,61,31,30.25,30.15,12,1,14,0.00
2013-5-14,74.6,57.9,38.8,56.3,46.2,35.6,89,67,47,30.25,30.03,11,2,19,0.00
2013-5-16,79.1,71.8,60.8,64.5,61.0,56.3,89,70,52,30.04,29.94,6,1,11,0.00
2013-5-17,66.2,65.8,65.3,62.8,62.4,61.9,89,89,89,30.04,30.03,0,0,1,0.01
2013-5-18,72.0,66.2,62.9,67.7,62.6,59.6,89,89,84,30.04,29.98,4,0,11,0.30
2013-5-19,76.4,67.8,61.4,70.3,63.9,58.1,90,88,79,30.05,29.97,9,0,11,0.08
2013-5-20,81.7,69.1,58.6,69.8,62.9,55.3,90,82,62,30.11,29.96,6,0,7,0.00
2013-5-21,85.4,71.0,61.6,72.4,64.2,58.3,91,80,59,30.03,29.89,13,1,28,0.00
2013-5-22,81.5,69.4,59.9,71.6,63.4,56.6,89,82,61,29.94,29.81,7,0,19,0.03
2013-5-23,76.6,67.0,60.8,67.2,60.3,54.0,91,80,60,29.99,29.85,12,1,24,0.14
2013-5-24,66.4,59.0,48.6,55.4,47.6,40.1,89,68,42,30.28,29.98,13,2,17,0.01
2013-5-25,71.7,63.6,47.9,50.8,45.8,39.8,90,54,33,30.37,30.19,8,1,11,0.00
2013-5-26,74.6,62.7,54.1,54.3,49.9,45.6,85,65,44,30.29,30.18,6,0,9,0.00
2013-5-27,81.8,66.9,52.6,63.0,56.0,49.4,89,70,47,30.22,30.07,10,1,14,0.00
2013-5-28,83.1,72.2,62.0,65.3,60.9,57.1,87,69,48,30.16,30.04,10,1,15,0.00
2013-5-29,84.9,72.7,58.4,68.2,62.1,55.1,89,71,51,30.19,30.06,7,0,16,0.00
2013-5-30,85.6,73.2,58.5,68.8,61.8,55.2,89,70,45,30.21,30.06,6,0,10,0.00
2013-5-31,85.6,73.0,61.3,67.0,62.5,57.6,89,71,44,30.14,30.02,6,1,12,0.00
2013-6-1,85.6,74.6,66.8,69.4,64.5,61.2,89,72,46,30.05,29.90,15,2,20,0.05
2013-6-2,73.4,68.6,64.3,69.6,65.0,60.9,90,89,78,29.95,29.85,11,1,15,0.01
2013-6-3,77.2,68.2,62.0,66.8,61.6,58.2,90,81,59,29.99,29.89,8,1,13,0.01
2013-6-4,81.2,68.3,56.4,65.7,59.7,53.1,90,76,49,30.05,29.97,4,0,8,0.00
2013-6-5,83.3,73.3,64.9,70.1,65.4,61.5,89,78,59,30.02,29.88,16,1,19,0.01
2013-6-6,79.7,70.3,62.4,70.6,65.0,59.1,91,84,68,29.92,29.73,7,0,11,0.01
2013-6-7,80.2,71.3,66.5,69.5,65.2,63.1,90,82,60,29.83,29.69,9,1,12,0.03
2013-6-8,79.6,69.7,62.0,67.6,63.2,58.7,90,81,59,30.05,29.82,7,1,11,0.02
2013-6-9,84.1,70.1,62.3,70.7,64.5,59.0,89,83,60,30.09,29.96,6,0,10,0.39
2013-6-12,88.4,83.7,75.9,77.0,74.0,71.3,87,73,63,30.00,29.87,9,1,10,0.00
2013-6-13,83.6,75.1,67.7,75.9,69.7,59.8,89,84,73,29.88,29.69,19,2,21,0.15
2013-6-14,78.2,67.6,56.2,63.4,58.9,52.9,90,75,54,30.04,29.86,6,0,12,0.00
2013-6-15,82.4,69.7,57.3,67.5,60.8,54.0,90,75,53,30.12,30.02,6,0,9,0.00
2013-6-16,82.7,72.1,62.2,72.5,65.1,58.9,90,80,59,30.10,29.97,8,1,13,0.13
2013-6-17,80.6,72.6,66.8,73.4,67.7,63.4,90,85,72,30.04,29.90,7,1,13,0.05
2013-6-18,73.4,69.0,63.4,67.1,64.8,60.1,90,87,74,29.95,29.82,10,0,14,0.01
2013-6-19,81.5,69.8,60.3,69.4,63.4,57.0,90,81,58,30.07,29.93,6,0,9,0.01
2013-6-20,83.5,72.6,62.3,70.8,64.7,59.0,90,78,54,30.17,30.07,4,0,6,0.02
2013-6-21,83.7,72.5,64.3,72.7,66.1,60.9,90,81,63,30.22,30.12,4,0,7,0.00
2013-6-22,83.5,72.9,64.2,71.6,65.4,61.1,90,79,53,30.21,30.07,5,0,9,0.00
2013-6-23,85.3,73.3,61.9,69.5,64.6,58.6,90,76,51,30.20,30.07,7,0,8,0.00
2013-6-24,73.6,71.6,70.3,68.4,67.6,66.8,89,87,84,30.11,30.08,0,0,0,0.00
2013-6-25,79.7,75.2,69.6,73.4,70.6,66.2,89,86,79,30.03,29.99,0,0,4,0.05
2013-6-26,83.4,77.0,73.1,72.9,70.6,67.3,89,81,71,29.96,29.85,8,1,13,0.01
2013-6-27,82.6,71.3,65.2,75.4,67.5,61.8,90,88,77,29.89,29.79,8,1,19,0.24
2013-6-28,80.4,72.7,65.1,73.9,68.1,62.0,90,86,64,29.82,29.63,10,1,13,0.01
2013-6-29,81.6,72.2,64.2,68.8,64.0,61.0,90,77,54,29.68,29.62,7,1,12,0.00
2013-6-30,84.1,78.0,69.3,68.0,65.4,59.5,88,67,46,29.78,29.69,7,1,12,0.00
2013-7-1,80.8,70.5,61.6,71.6,65.5,58.3,90,85,66,29.89,29.75,7,0,16,0.01
2013-7-2,79.0,70.8,64.4,70.1,65.8,61.2,90,85,67,30.05,29.89,8,0,11,0.02
2013-7-3,75.9,69.1,65.8,71.3,65.8,62.7,90,89,84,30.15,30.04,8,0,14,0.27
2013-7-4,77.6,69.6,64.6,72.5,66.1,61.5,90,89,83,30.16,30.07,7,0,11,0.01
2013-7-5,79.6,72.6,67.8,71.8,68.1,64.7,90,86,75,30.16,30.09,6,0,8,0.04
2013-7-6,82.4,70.4,66.4,72.4,66.6,63.3,90,88,69,30.15,30.06,9,0,14,0.01
2013-7-7,73.2,68.7,64.0,69.4,65.5,61.0,91,90,87,30.16,30.07,5,0,9,0.01
2013-7-8,84.5,72.2,63.1,73.8,66.8,60.1,91,84,60,30.21,30.09,4,0,5,0.01
2013-7-9,87.4,74.7,65.5,76.4,69.3,62.4,90,84,63,30.15,30.03,5,0,7,0.00
2013-7-10,85.7,74.9,69.5,76.7,70.4,66.4,90,86,71,30.06,29.90,11,0,15,0.08
2013-7-11,84.3,73.8,67.8,73.4,68.4,64.7,90,84,65,29.96,29.86,5,0,9,0.00
2013-7-12,80.4,71.4,64.6,70.3,64.8,61.5,90,81,54,29.97,29.89,7,0,11,0.00
2013-7-13,84.2,73.4,63.4,70.6,65.3,60.4,90,77,56,30.06,29.94,10,1,12,0.00
2013-7-14,83.5,75.4,67.5,73.5,68.0,64.1,90,78,67,30.21,30.05,12,1,17,0.00
2013-7-15,86.5,77.4,71.6,72.6,68.3,65.5,89,74,58,30.28,30.19,8,1,13,0.00
2013-7-16,88.6,76.2,66.4,74.3,68.7,63.3,90,79,50,30.32,30.22,5,0,7,0.00
2013-7-17,89.1,76.4,68.3,76.8,69.5,65.2,90,81,55,30.28,30.13,10,0,16,0.11
2013-7-18,89.9,80.6,69.2,77.3,73.2,66.1,90,79,60,30.18,30.03,4,0,7,0.00
2013-7-19,88.0,76.2,69.5,76.4,71.1,66.4,90,85,62,30.09,29.94,6,0,11,0.46
2013-7-20,87.5,77.0,68.9,77.1,71.1,65.8,90,83,58,30.00,29.88,6,0,9,0.01
2013-7-21,79.9,72.5,69.5,74.2,68.9,66.4,90,89,79,30.02,29.90,6,0,21,0.01
2013-7-22,80.9,72.3,69.0,73.5,68.6,65.9,90,88,77,29.97,29.81,11,1,15,0.01
2013-7-23,82.7,72.6,69.0,74.6,68.6,65.9,91,88,74,29.90,29.79,7,1,16,0.01
2013-7-24,83.6,75.0,67.1,74.3,69.3,63.7,90,83,58,29.87,29.77,7,0,9,0.01
2013-7-25,81.9,71.4,63.1,68.1,63.4,59.8,90,77,54,30.04,29.86,6,0,11,0.00
2013-7-26,83.7,70.3,58.6,71.7,63.6,55.3,90,80,64,30.06,29.97,5,0,9,0.00
2013-7-27,78.7,70.3,65.9,71.3,66.3,62.5,90,87,73,29.99,29.86,5,0,13,0.34
2013-7-28,79.6,70.5,59.8,68.4,63.1,56.2,90,79,55,30.06,29.89,11,1,12,0.00
2013-7-29,80.3,65.4,53.6,65.1,57.0,50.4,89,76,47,30.20,30.05,5,0,8,0.00
2013-7-30,75.5,66.3,56.5,67.9,61.0,53.2,91,83,67,30.23,30.14,1,0,5,0.02
2013-7-31,74.7,67.8,61.9,69.2,63.9,58.3,89,87,82,30.17,29.96,5,0,9,0.20
2013-8-1,82.0,73.2,66.0,71.7,67.0,62.3,89,82,64,29.97,29.92,6,0,11,0.00
2013-8-2,82.1,70.6,61.5,69.6,63.2,58.2,89,79,53,30.04,29.95,6,0,8,0.00
2013-8-3,82.1,72.6,62.8,72.9,66.6,59.1,89,82,67,30.03,29.95,8,0,12,0.00
2013-8-4,81.5,73.9,63.9,70.2,65.8,59.6,88,77,57,30.05,29.97,7,0,11,0.00
2013-8-5,82.7,70.5,59.2,68.6,62.5,55.6,88,77,53,30.06,29.95,7,0,14,0.00
2013-8-6,83.3,73.6,65.9,73.8,67.2,62.2,88,81,64,29.99,29.93,4,0,6,0.00
2013-8-7,81.5,77.5,74.0,74.6,72.3,69.8,88,84,77,29.99,29.90,9,0,11,0.00
2013-8-8,80.9,74.3,69.9,74.8,70.1,66.1,88,87,80,30.03,29.93,6,0,11,0.02
2013-8-9,86.6,76.4,68.6,76.6,70.7,64.8,88,83,69,30.04,29.95,13,1,13,0.00
2013-8-10,85.5,74.4,68.0,76.8,69.7,64.3,89,86,70,30.10,30.03,21,0,25,0.02
2013-8-11,71.4,68.2,66.3,67.8,64.6,62.6,89,88,88,30.13,30.08,0,0,1,0.01
2013-8-12,82.1,77.4,71.0,75.5,72.4,67.9,90,85,78,30.08,29.94,7,0,10,0.01
2013-8-13,80.0,73.4,68.3,72.1,68.3,64.2,88,84,74,29.92,29.84,3,0,8,0.01
2013-8-14,76.3,67.2,58.8,64.6,60.6,54.9,89,80,56,30.07,29.92,7,0,10,0.01
2013-8-15,80.2,72.2,63.4,68.4,63.9,57.6,87,76,62,30.09,30.01,5,0,9,0.00
2013-8-16,80.2,66.9,62.0,65.6,60.6,57.7,87,81,57,30.09,30.02,1,0,10,0.00
2013-8-17,73.1,68.2,63.3,65.0,62.0,58.5,88,81,70,30.14,30.07,4,0,7,0.30
2013-8-18,77.9,69.2,65.6,69.1,64.6,62.0,89,86,71,30.18,30.09,9,0,11,0.07
2013-8-19,78.7,71.2,66.4,70.9,66.5,62.7,89,85,74,30.15,30.05,5,0,8,0.10
2013-8-20,84.2,73.0,65.6,72.8,67.4,62.2,90,83,64,30.16,30.07,3,0,7,0.01
2013-8-21,80.3,72.2,66.1,73.6,66.9,59.5,90,84,60,30.24,30.00,14,1,24,3.68
2013-8-22,85.0,74.0,65.5,73.1,67.4,59.6,90,81,62,30.17,30.00,12,0,22,0.60
2013-8-23,83.9,71.5,65.4,72.7,66.7,62.0,90,85,67,30.08,30.00,5,0,9,0.02
2013-8-24,84.3,72.4,64.5,70.2,63.9,59.0,90,77,44,30.22,30.00,10,0,20,0.08
2013-8-25,81.9,70.5,60.6,66.3,60.6,55.8,85,72,49,30.35,30.00,14,0,25,6.58
2013-8-26,82.5,66.9,57.2,68.4,59.2,53.4,89,77,59,30.31,29.75,14,4,25,29.99
2013-8-27,83.0,71.7,62.1,72.3,65.6,58.4,89,82,68,30.15,30.02,5,0,8,0.00
2013-8-28,86.5,75.1,65.8,74.2,68.1,62.1,89,80,62,30.05,29.95,7,0,9,0.00
2013-8-29,88.4,76.5,69.5,76.1,69.4,65.1,88,79,57,29.99,29.90,7,0,9,0.00
2013-8-30,87.7,75.7,65.5,74.5,68.4,62.1,89,79,59,29.99,29.87,8,0,11,0.00
2013-8-31,88.0,76.9,69.3,75.6,70.4,64.7,88,81,63,29.93,29.80,7,0,14,0.01
2013-9-1,84.9,73.5,67.2,73.6,67.6,63.5,89,83,65,29.89,29.79,8,0,14,0.01
2013-9-2,80.5,72.5,65.4,72.6,67.4,62.0,89,84,75,29.92,29.81,8,0,9,0.00
2013-9-3,81.5,73.7,63.3,71.2,65.5,59.0,89,76,61,30.01,29.90,6,0,12,0.02
2013-9-4,82.0,72.6,61.7,67.2,63.0,57.6,90,73,53,30.13,30.05,7,0,8,0.00
2013-9-5,79.4,67.2,57.1,66.4,60.6,53.6,90,80,57,30.17,30.11,6,0,8,0.01
2013-9-6,83.3,69.5,59.0,67.0,61.8,55.7,90,78,52,30.18,30.06,6,0,9,0.00
2013-9-7,83.3,69.9,59.3,69.8,63.0,56.0,90,80,60,30.11,29.98,7,0,13,0.00
2013-9-8,84.4,72.1,64.5,70.8,65.2,61.1,89,80,57,30.01,29.93,6,0,8,0.00
2013-9-9,86.7,73.9,64.4,72.2,66.2,61.0,90,78,53,30.08,30.00,4,0,9,0.00
2013-9-10,75.3,71.2,69.2,67.9,65.9,64.8,86,84,78,30.19,30.12,0,0,1,0.00
2013-9-11,84.7,73.6,67.0,73.5,67.6,63.3,89,82,65,30.20,30.08,5,0,9,0.14
2013-9-12,84.2,71.9,65.6,72.8,66.5,61.9,90,84,67,30.08,29.87,14,0,31,0.01
2013-9-13,73.8,65.8,55.3,64.0,57.2,49.2,90,75,50,29.98,29.87,9,1,15,0.01
2013-9-14,73.0,58.6,47.9,56.5,50.5,44.5,88,76,49,30.10,29.98,6,0,9,0.00
2013-9-15,78.7,63.6,51.3,65.8,56.0,47.8,88,78,55,30.19,30.10,5,0,9,0.00
2013-9-16,77.7,65.6,58.0,66.0,59.5,54.4,90,82,64,30.19,30.11,8,0,10,0.00
2013-9-17,78.2,67.0,57.9,65.7,59.5,53.7,87,78,63,30.22,30.13,6,0,9,0.00
2013-9-18,67.1,63.5,59.0,60.5,57.4,54.1,86,81,75,30.21,30.14,7,0,9,0.04
2013-9-19,79.3,67.7,59.3,68.4,61.6,55.8,89,82,67,30.18,30.05,7,0,10,0.00
2013-9-20,81.3,69.4,59.6,68.7,62.6,56.3,90,80,61,30.07,29.87,7,0,11,0.00
2013-9-21,72.7,65.8,59.0,64.0,60.8,53.8,87,84,74,29.88,29.72,11,0,15,0.01
2013-9-22,60.2,54.5,50.7,54.1,50.3,47.2,89,86,79,29.95,29.81,0,0,1,0.01
2013-9-23,77.0,61.3,49.3,62.7,54.6,46.0,89,80,58,30.04,29.94,3,0,9,0.02
2013-9-24,77.2,65.9,55.8,64.1,59.1,52.6,90,80,61,30.06,29.88,5,0,8,0.01
2013-9-25,68.4,64.5,62.4,62.6,60.3,58.4,89,87,80,29.89,29.82,0,0,5,0.00
2013-9-26,75.8,67.7,58.1,64.4,59.4,54.2,90,76,56,30.03,29.95,7,0,8,0.00
2013-9-27,77.1,62.8,52.3,63.2,56.4,49.1,90,81,53,30.16,30.03,1,0,7,0.01
2013-9-28,74.7,64.6,54.5,62.6,57.4,51.3,89,78,62,30.23,30.10,5,0,8,0.00
2013-9-29,70.0,61.1,55.4,59.9,55.8,52.2,89,83,68,30.14,30.01,5,0,8,0.01
2013-9-30,74.0,62.2,52.9,61.6,55.9,49.7,90,81,61,30.09,30.00,6,0,9,0.00
2013-10-1,76.8,63.3,53.3,62.9,57.1,50.1,89,81,61,30.16,30.05,6,0,11,0.00
2013-10-2,78.6,65.7,55.9,66.6,59.7,52.7,90,82,64,30.18,30.07,5,0,5,0.00
2013-10-3,80.0,68.1,60.9,67.3,61.9,57.6,90,81,61,30.13,30.04,4,0,7,0.00
2013-10-4,81.7,67.9,58.2,67.1,61.2,54.9,90,80,59,30.16,30.08,7,0,8,0.01
2013-10-5,82.9,67.4,59.0,68.8,61.4,55.7,90,82,59,30.13,29.99,1,0,4,0.00
2013-10-6,81.4,70.1,59.0,67.0,61.2,55.7,90,75,53,29.99,29.78,11,1,19,0.00
2013-10-7,67.3,57.7,48.7,61.2,50.0,44.3,87,76,55,30.10,29.81,9,1,18,0.00
2013-10-8,71.7,54.7,44.8,54.1,47.0,41.4,88,77,51,30.18,30.10,6,0,10,0.00
2013-10-9,73.9,56.1,47.6,59.1,49.8,43.6,87,80,57,30.20,30.12,4,0,5,0.00
2013-10-10,73.2,59.0,47.3,57.0,51.0,44.2,89,77,51,30.17,30.05,7,0,9,0.00
2013-10-11,76.2,60.8,48.3,59.9,52.8,44.9,89,76,53,30.09,30.00,7,0,12,0.00
2013-10-12,75.1,62.3,52.3,61.9,54.6,48.8,89,77,58,30.12,30.01,8,0,12,0.00
2013-10-13,74.1,65.1,59.0,63.2,58.9,54.4,87,81,67,30.21,30.12,5,0,9,0.00
2013-10-14,77.3,66.0,58.3,63.4,58.8,54.7,89,79,56,30.23,30.10,6,0,7,0.00
2013-10-15,73.1,67.2,61.1,61.9,59.3,56.3,86,76,66,30.11,30.01,4,0,6,0.00
2013-10-16,66.5,62.1,57.6,58.2,56.4,53.5,87,82,74,30.04,29.96,8,0,12,0.00
2013-10-17,65.4,60.5,53.3,62.0,56.1,47.4,89,86,78,30.00,29.84,7,1,14,0.27
2013-10-18,63.2,54.5,47.5,51.0,46.9,42.8,90,76,56,30.09,29.98,5,0,8,0.00
2013-10-19,62.5,52.3,44.7,52.1,46.5,39.2,89,81,66,30.05,29.91,12,1,16,0.00
2013-10-20,62.7,46.2,35.2,45.9,38.6,32.0,89,76,47,30.14,30.05,4,0,7,0.00
2013-10-21,66.8,49.4,36.8,49.4,41.7,33.5,93,77,46,30.16,30.02,12,1,14,0.00
2013-10-22,60.0,53.6,45.7,51.7,47.5,41.4,86,80,72,30.03,29.86,6,0,8,0.00
2013-10-23,49.1,46.6,44.5,44.6,41.6,36.9,88,83,70,29.96,29.79,8,1,17,0.00
2013-10-24,49.4,45.1,36.8,39.1,37.0,31.1,88,74,64,30.30,30.17,12,1,16,0.00
2013-10-25,48.1,40.9,31.2,32.9,28.9,25.9,81,64,47,30.48,30.39,7,1,10,0.00
2013-10-26,55.9,42.1,26.0,36.3,30.2,22.0,86,65,43,30.39,30.13,14,2,20,0.00
2013-10-27,63.1,54.0,47.8,48.1,42.2,35.5,76,64,55,30.17,30.08,7,1,13,0.00
2013-10-28,63.6,56.7,50.1,54.4,50.4,45.1,88,80,69,30.28,30.13,7,0,13,0.07
2013-10-29,69.4,59.4,53.3,55.6,51.6,49.5,88,76,54,30.34,30.22,5,0,9,0.00
2013-10-30,75.1,63.8,56.6,59.9,54.8,50.8,84,74,56,30.26,30.12,10,1,14,0.00
2013-10-31,71.3,64.6,56.1,59.4,55.2,50.6,84,72,61,30.13,29.64,22,3,27,0.00
2013-11-1,70.5,62.5,47.6,60.3,53.5,41.5,88,74,52,29.79,29.62,18,3,37,0.29
2013-11-2,59.6,50.5,41.6,47.3,40.9,37.3,87,71,46,29.93,29.78,11,1,16,0.00
2013-11-3,47.2,44.6,38.0,35.9,34.8,32.9,87,68,63,30.34,30.27,4,0,8,0.00
2013-11-4,61.7,49.0,36.9,41.1,36.1,31.0,79,62,42,30.45,30.34,5,1,9,0.00
2013-11-5,65.7,53.6,44.1,41.4,36.0,29.2,71,53,35,30.47,30.33,7,0,9,0.00
2013-11-6,71.8,60.2,47.6,55.3,47.3,32.2,77,63,48,30.33,30.06,9,1,17,0.00
2013-11-7,52.8,46.4,35.3,46.3,36.2,29.1,86,68,53,30.29,30.07,13,2,20,0.02
2013-11-8,53.1,39.1,28.8,32.8,27.3,24.5,85,65,34,30.43,30.29,8,1,11,0.01
2013-11-9,54.0,41.5,29.4,36.4,30.3,23.7,80,66,45,30.36,30.25,12,2,20,0.00
2013-11-10,63.4,47.5,35.3,43.2,33.6,27.2,84,61,31,30.35,30.26,10,1,14,0.00
2013-11-11,52.8,44.7,35.1,35.5,30.8,26.3,71,59,41,30.34,30.19,0,0,1,0.00
2013-11-12,51.0,38.6,27.4,39.8,28.0,17.0,77,66,54,30.60,30.15,17,3,21,0.00
2013-11-13,42.8,33.4,20.5,22.6,20.9,15.8,82,61,43,30.72,30.53,7,1,10,0.00
2013-11-14,55.4,35.5,21.9,28.7,21.6,16.9,87,61,29,30.55,30.34,9,1,13,0.00
2013-11-15,34.8,32.8,31.7,25.5,24.1,23.0,73,70,67,30.34,30.30,2,0,4,0.00
2013-11-16,64.9,54.9,46.9,55.0,48.9,43.2,88,81,69,30.25,30.11,5,0,8,0.00
2013-11-17,65.1,58.5,48.7,61.1,53.6,45.3,89,84,69,30.12,29.81,15,2,21,0.35
2013-11-18,63.3,55.1,42.4,59.0,43.0,31.1,87,66,40,30.16,29.85,9,2,15,0.04
2013-11-19,48.5,40.1,32.1,31.0,28.7,25.4,77,64,47,30.26,30.16,8,1,12,0.01
2013-11-20,54.8,42.9,32.6,34.3,30.0,26.2,78,61,43,30.36,30.22,10,1,15,0.00
2013-11-21,65.7,51.9,38.7,49.1,40.5,30.0,76,65,53,30.40,30.28,6,1,12,0.01
2013-11-22,55.9,53.9,50.6,52.9,49.2,44.5,90,84,75,30.32,30.18,10,1,13,0.01
2013-11-23,51.5,42.3,29.3,47.4,34.4,18.6,87,74,55,30.43,30.21,13,3,22,0.01
2013-11-24,33.4,26.7,20.5,18.9,13.3,9.2,71,58,38,30.63,30.43,11,2,20,0.02
2013-11-25,36.0,29.8,21.0,28.5,17.7,11.5,84,61,45,30.54,30.26,7,0,10,0.02
2013-11-26,44.5,38.1,32.7,41.4,34.7,28.4,89,88,84,30.26,29.79,9,1,16,0.01
2013-11-27,35.9,30.2,23.4,32.1,24.5,16.3,86,79,71,30.35,29.84,13,2,24,0.01
2013-11-28,39.8,26.9,16.8,27.3,19.8,12.8,85,75,58,30.55,30.34,5,0,6,0.02
2013-11-29,47.4,38.0,29.3,30.2,26.5,23.4,84,65,46,30.66,30.54,5,1,8,0.00
2013-11-30,52.5,37.6,27.9,34.4,27.8,22.3,84,69,48,30.57,30.34,5,0,8,0.00
2013-12-1,53.3,41.1,27.8,37.7,31.9,23.0,87,71,54,30.35,30.04,10,1,11,0.00
2013-12-2,46.8,45.4,43.7,41.2,39.1,36.3,84,79,71,30.04,29.83,5,0,6,0.00
2013-12-3,56.2,49.6,45.4,48.5,44.2,41.0,87,82,75,29.91,29.84,5,0,6,0.01
2013-12-4,68.0,63.8,54.4,56.4,53.5,48.0,79,69,64,29.98,29.88,16,4,31,0.00
2013-12-5,69.7,65.9,61.0,61.1,58.2,54.5,83,77,70,30.00,29.89,12,4,17,0.00
2013-12-6,43.8,38.6,37.3,40.4,35.0,33.7,88,87,87,30.18,29.98,4,0,11,1.03
2013-12-7,79.9,43.4,34.2,64.8,37.3,29.2,87,80,60,30.46,30.00,14,4,25,5.80
2013-12-8,44.7,39.5,34.2,41.6,35.9,29.2,89,87,82,30.40,30.11,8,1,15,0.94
2013-12-9,50.7,44.8,36.3,47.5,41.3,32.0,90,88,81,30.18,30.05,8,1,10,0.40
2013-12-10,38.0,33.4,24.0,33.6,28.0,19.9,87,81,63,30.41,30.03,13,1,16,0.33
2013-12-11,34.3,25.5,21.0,25.4,20.1,17.2,85,80,66,30.50,30.40,6,0,7,0.00
2013-12-12,37.5,29.5,23.1,23.9,17.9,10.8,76,63,34,30.57,30.45,9,1,10,0.00
2013-12-13,47.0,39.9,20.2,27.6,23.5,15.0,80,53,36,30.43,30.19,6,1,11,0.00
2013-12-14,45.2,40.8,38.0,42.1,28.6,22.2,89,62,44,30.21,29.83,8,1,20,0.36
2013-12-15,43.8,34.6,29.7,40.4,29.5,25.0,88,82,77,30.22,29.84,9,1,21,0.01
2013-12-16,46.5,35.8,26.7,35.1,29.2,22.5,86,78,62,30.28,30.14,11,2,15,0.00
2013-12-17,53.1,46.6,35.4,38.7,33.5,24.4,77,61,54,30.23,30.00,18,5,22,0.00
2013-12-18,45.4,37.0,25.8,26.7,23.4,20.7,81,59,41,30.37,30.31,8,2,14,0.00
2013-12-19,54.7,45.7,26.5,31.8,27.7,19.9,77,51,34,30.36,30.18,9,1,15,0.00
2013-12-20,54.7,46.1,34.4,42.2,34.1,26.3,73,63,48,30.21,30.08,7,0,8,0.00
2013-12-21,71.6,61.4,50.1,60.4,51.7,40.7,81,71,63,30.08,29.79,16,2,26,0.07
2013-12-22,69.8,58.5,55.2,60.8,53.4,49.9,86,83,73,30.03,29.79,16,3,25,1.18
2013-12-23,55.2,42.2,32.9,50.2,36.7,25.2,87,81,73,30.36,30.00,12,3,18,0.02
2013-12-24,32.7,29.0,19.3,25.3,20.3,13.5,78,70,55,30.52,30.35,10,1,14,0.26
2013-12-25,41.1,31.7,16.8,25.4,22.1,12.2,82,68,52,30.52,30.37,7,0,8,0.11
2013-12-26,45.6,37.1,28.1,30.8,25.0,21.1,76,63,43,30.43,30.36,6,1,9,0.01
2013-12-27,51.2,34.4,23.6,30.6,23.8,18.5,82,67,39,30.52,30.41,5,0,8,0.00
2013-12-28,44.2,35.5,26.2,39.9,28.4,21.1,85,76,61,30.46,30.04,7,1,21,0.34
2013-12-29,45.0,42.8,39.1,41.4,39.1,35.8,88,87,84,30.06,29.87,13,2,21,1.03
2013-12-30,41.5,36.2,33.4,39.1,31.1,28.1,93,82,75,30.26,30.04,8,1,13,0.04
2013-12-31,43.5,31.1,24.3,29.9,24.3,20.7,87,77,49,30.49,30.25,10,1,11,0.01
2014-1-1,47.1,32.7,22.5,31.5,24.4,18.6,85,73,46,30.40,30.14,10,1,12,0.00
2014-1-2,39.1,32.5,18.7,35.5,27.4,13.0,87,81,73,30.19,29.78,15,2,24,0.35